Seaforth, Minnesota
Current Conditions -  °F | °C
As of 11:53 AM on Wednesday 28 Jan 2015 (Local Time) from KRWF Reporting Station
Haze Haze  
Wind Chill: 22°   Ceiling: 700
Heat Index: 33°   Visibility: 4mi
Dew Point: 30°   Wind: 17mph
Humidity: 89%   Direction: 150°SSE
Pressure: 29.81"   Gusts: NA
Location:  44.48°N, 95.33°W
Report Text: KRWF 281753Z AUTO 15015KT 4SM BR OVC007 01/M01 A2981 RMK AO2 SLP107 T00061011 10006 20000 58017
Loading
Personal Weather Stations






























Interactive Weather Map New forecast layout! Learn more

10-Day Weather Forecast

Advertisements
Track Severe Weather on mobile